createdAt,value
2023-02-17T00:02:03.132Z,99986.28
2023-02-17T00:04:31.115Z,99994.28
2023-02-17T00:06:58.438Z,99988.22
2023-02-17T00:09:25.611Z,99996.91
2023-02-17T00:11:53.041Z,99985.03
2023-02-17T00:14:20.210Z,99986.94
2023-02-17T00:16:47.404Z,99988.28
2023-02-17T00:19:24.986Z,99989.91
2023-02-17T00:21:56.485Z,99990.62
2023-02-17T00:24:24.578Z,99987.50
2023-02-17T00:26:51.754Z,99985.75
2023-02-17T00:29:19.000Z,99987.53
2023-02-17T00:31:46.852Z,99986.00
2023-02-17T00:34:14.215Z,99978.66
2023-02-17T00:36:41.392Z,99980.28
2023-02-17T00:39:09.580Z,99987.38
2023-02-17T00:41:36.834Z,99984.59
2023-02-17T00:44:04.110Z,99984.59
2023-02-17T00:46:31.662Z,99985.81
2023-02-17T00:48:58.846Z,99985.81
2023-02-17T00:51:26.028Z,99990.28
2023-02-17T00:53:53.554Z,99991.56
2023-02-17T00:56:20.756Z,99997.09
2023-02-17T00:58:47.974Z,99983.88
2023-02-17T01:01:15.587Z,99983.19
2023-02-17T01:03:43.338Z,99975.44
2023-02-17T01:06:11.421Z,99972.72
2023-02-17T01:08:40.915Z,99973.72
2023-02-17T01:11:08.061Z,99967.62
2023-02-17T01:13:35.237Z,99963.13
2023-02-17T01:16:02.705Z,99966.41
2023-02-17T01:18:29.948Z,99967.81
2023-02-17T01:20:57.124Z,99963.59
2023-02-17T01:23:24.564Z,99969.69
2023-02-17T01:25:53.234Z,99966.78
2023-02-17T01:28:23.093Z,99960.94
2023-02-17T01:30:50.610Z,99954.78
2023-02-17T01:33:17.854Z,99956.37
2023-02-17T01:35:45.537Z,99954.69
2023-02-17T01:38:12.987Z,99950.00
2023-02-17T01:40:49.268Z,99943.44
2023-02-17T01:43:17.170Z,99949.22
2023-02-17T01:45:47.095Z,99949.72
2023-02-17T01:48:15.015Z,99958.59
2023-02-17T01:50:49.912Z,99955.84
2023-02-17T01:53:18.442Z,99956.66
2023-02-17T01:55:45.976Z,99946.25
2023-02-17T01:58:13.922Z,99946.41
2023-02-17T02:00:41.118Z,99940.41
2023-02-17T02:03:09.700Z,99942.63
2023-02-17T02:05:37.743Z,99928.53
2023-02-17T02:08:05.576Z,99931.25
2023-02-17T02:10:33.979Z,99929.53
2023-02-17T02:13:01.276Z,99924.13
2023-02-17T02:15:43.490Z,99933.00
2023-02-17T02:18:16.719Z,99931.50
2023-02-17T02:21:02.949Z,99927.16
2023-02-17T02:23:30.079Z,99930.78
2023-02-17T02:26:16.270Z,99939.37
2023-02-17T02:29:02.497Z,99925.94
2023-02-17T02:31:42.063Z,99931.31
2023-02-17T02:34:10.099Z,99925.22
2023-02-17T02:36:40.660Z,99922.72
2023-02-17T02:39:09.680Z,99926.63
2023-02-17T02:41:44.303Z,99923.53
2023-02-17T02:44:13.370Z,99923.59
2023-02-17T02:46:40.669Z,99917.81
2023-02-17T02:49:07.852Z,99912.44
2023-02-17T02:51:41.156Z,99919.28
2023-02-17T02:54:27.175Z,99925.87
2023-02-17T02:57:12.848Z,99922.75
2023-02-17T02:59:46.274Z,99913.72
2023-02-17T03:02:17.610Z,99916.72
2023-02-17T03:04:56.982Z,99923.06
2023-02-17T03:07:34.740Z,99911.13
2023-02-17T03:10:01.933Z,99911.19
2023-02-17T03:12:29.490Z,99912.81
2023-02-17T03:15:03.865Z,99911.28
2023-02-17T03:17:32.869Z,99921.44
2023-02-17T03:20:03.701Z,99931.56
2023-02-17T03:22:40.548Z,99942.16
2023-02-17T03:25:08.229Z,99935.03
2023-02-17T03:27:35.944Z,99935.31
2023-02-17T03:30:03.259Z,99930.88
2023-02-17T03:32:30.431Z,99934.72
2023-02-17T03:34:57.915Z,99938.47
2023-02-17T03:37:25.054Z,99935.03
2023-02-17T03:39:52.240Z,99946.16
2023-02-17T03:42:19.736Z,99938.47
2023-02-17T03:44:46.879Z,99946.41
2023-02-17T03:47:14.100Z,99942.72
2023-02-17T03:49:41.474Z,99941.66
2023-02-17T03:52:08.605Z,99935.81
2023-02-17T03:54:35.793Z,99936.56
2023-02-17T03:57:03.321Z,99934.19
2023-02-17T03:59:31.198Z,99935.06
2023-02-17T04:01:58.377Z,99933.88
2023-02-17T04:04:25.832Z,99937.28
2023-02-17T04:06:52.992Z,99921.62
2023-02-17T04:09:20.203Z,99911.13
2023-02-17T04:11:47.626Z,99916.06
2023-02-17T04:14:14.893Z,99931.75
2023-02-17T04:16:42.092Z,99935.16
2023-02-17T04:19:09.604Z,99940.56
2023-02-17T04:21:36.784Z,99933.72
2023-02-17T04:24:04.274Z,99927.94
2023-02-17T04:26:31.690Z,99915.53
2023-02-17T04:28:58.821Z,99923.38
2023-02-17T04:31:28.149Z,99923.41
2023-02-17T04:33:55.721Z,99917.78
2023-02-17T04:36:22.849Z,99916.06
2023-02-17T04:38:50.007Z,99911.47
2023-02-17T04:41:17.436Z,99910.50
2023-02-17T04:43:44.674Z,99914.34
2023-02-17T04:46:12.002Z,99923.38
2023-02-17T04:48:39.498Z,99920.97
2023-02-17T04:51:06.692Z,99933.84
2023-02-17T04:53:33.839Z,99922.13
2023-02-17T04:56:01.339Z,99924.94
2023-02-17T04:58:28.588Z,99919.41
2023-02-17T05:00:58.273Z,99916.97
2023-02-17T05:03:25.690Z,99924.37
2023-02-17T05:05:52.835Z,99934.69
2023-02-17T05:08:19.992Z,99923.97
2023-02-17T05:10:47.462Z,99932.22
2023-02-17T05:13:14.634Z,99937.53
2023-02-17T05:15:43.201Z,99948.75
2023-02-17T05:18:10.852Z,99960.31
2023-02-17T05:20:38.195Z,99950.06
2023-02-17T05:23:05.324Z,99933.47
2023-02-17T05:25:32.822Z,99941.25
2023-02-17T05:27:59.947Z,99935.13
2023-02-17T05:30:27.258Z,99927.34
2023-02-17T05:32:54.770Z,99925.37
2023-02-17T05:35:21.911Z,99920.62
2023-02-17T05:37:49.104Z,99922.84
2023-02-17T05:40:16.572Z,99914.12
2023-02-17T05:42:43.748Z,99923.84
2023-02-17T05:45:12.005Z,99927.75
2023-02-17T05:47:39.450Z,99932.91
2023-02-17T05:50:06.955Z,99936.47
2023-02-17T05:52:34.107Z,99930.53
2023-02-17T05:55:03.229Z,99927.22
2023-02-17T05:57:30.758Z,99930.28
2023-02-17T05:59:57.904Z,99934.34
2023-02-17T06:02:25.406Z,99927.47
2023-02-17T06:04:52.901Z,99937.22
2023-02-17T06:07:20.253Z,99941.22
2023-02-17T06:09:47.441Z,99925.37
2023-02-17T06:12:14.927Z,99931.63
2023-02-17T06:14:42.104Z,99945.69
2023-02-17T06:17:09.276Z,99934.56
2023-02-17T06:19:36.728Z,99941.22
2023-02-17T06:22:03.978Z,99944.09
2023-02-17T06:24:31.196Z,99946.03
2023-02-17T06:26:58.623Z,99943.53
2023-02-17T06:29:25.760Z,99947.13
2023-02-17T06:31:53.067Z,99943.91
2023-02-17T06:34:20.670Z,99961.09
2023-02-17T06:36:47.825Z,99954.03
2023-02-17T06:39:15.049Z,99959.72
2023-02-17T06:41:42.881Z,99950.78
2023-02-17T06:44:10.071Z,99949.41
2023-02-17T06:46:37.255Z,99955.84
2023-02-17T06:49:05.789Z,99951.41
2023-02-17T06:51:32.967Z,99965.44
2023-02-17T06:54:00.114Z,99958.84
2023-02-17T06:56:27.578Z,99954.09
2023-02-17T06:58:54.746Z,99947.06
2023-02-17T07:01:23.113Z,99948.59
2023-02-17T07:03:50.575Z,99945.19
2023-02-17T07:06:17.759Z,99943.22
2023-02-17T07:08:45.187Z,99952.34
2023-02-17T07:11:13.165Z,99952.75
2023-02-17T07:13:41.111Z,99945.72
2023-02-17T07:16:09.571Z,99950.19
2023-02-17T07:18:37.874Z,99951.00
2023-02-17T07:21:05.803Z,99948.25
2023-02-17T07:23:33.286Z,99958.41
2023-02-17T07:26:05.081Z,99952.59
2023-02-17T07:28:32.516Z,99950.25
2023-02-17T07:31:04.980Z,99943.34
2023-02-17T07:33:32.642Z,99934.28
2023-02-17T07:36:00.175Z,99941.34
2023-02-17T07:38:27.324Z,99936.75
2023-02-17T07:40:54.749Z,99941.81
2023-02-17T07:43:21.891Z,99941.19
2023-02-17T07:45:53.771Z,99936.53
2023-02-17T07:48:21.213Z,99940.37
2023-02-17T07:50:48.375Z,99938.53
2023-02-17T07:53:15.521Z,99928.81
2023-02-17T07:55:42.933Z,99922.25
2023-02-17T07:58:10.093Z,99922.81
2023-02-17T08:00:37.249Z,99919.50
2023-02-17T08:03:04.747Z,99923.59
2023-02-17T08:05:31.961Z,99922.91
2023-02-17T08:08:17.530Z,99928.03
2023-02-17T08:11:03.392Z,99919.94
2023-02-17T08:13:30.539Z,99928.44
2023-02-17T08:15:59.374Z,99936.09
2023-02-17T08:18:27.911Z,99924.13
2023-02-17T08:20:56.218Z,99925.13
2023-02-17T08:23:23.662Z,99922.84
2023-02-17T08:25:50.996Z,99921.22
2023-02-17T08:28:18.318Z,99921.56
2023-02-17T08:30:46.139Z,99926.19
2023-02-17T08:33:17.912Z,99923.16
2023-02-17T08:35:45.520Z,99924.22
2023-02-17T08:38:12.916Z,99924.72
2023-02-17T08:40:40.144Z,99926.66
2023-02-17T08:43:08.516Z,99933.03
2023-02-17T08:45:37.064Z,99936.38
2023-02-17T08:48:04.622Z,99932.75
2023-02-17T08:50:32.581Z,99938.78
2023-02-17T08:52:59.762Z,99935.22
2023-02-17T08:55:26.922Z,99939.28
2023-02-17T08:57:54.389Z,99933.09
2023-02-17T09:00:21.644Z,99927.22
2023-02-17T09:02:48.928Z,99925.78
2023-02-17T09:05:16.402Z,99927.19
2023-02-17T09:07:43.675Z,99928.34
2023-02-17T09:10:11.030Z,99932.69
2023-02-17T09:12:38.534Z,99937.03
2023-02-17T09:15:07.400Z,99932.00
2023-02-17T09:17:34.530Z,99936.69
2023-02-17T09:20:01.958Z,99932.63
2023-02-17T09:22:32.420Z,99924.00
2023-02-17T09:24:59.761Z,99918.16
2023-02-17T09:27:27.156Z,99920.88
2023-02-17T09:29:54.325Z,99921.25
2023-02-17T09:32:22.713Z,99909.53
2023-02-17T09:34:53.139Z,99909.50
2023-02-17T09:37:20.458Z,99916.66
2023-02-17T09:39:48.217Z,99920.59
2023-02-17T09:42:19.407Z,99915.72
2023-02-17T09:44:52.173Z,99915.41
2023-02-17T09:47:23.919Z,99924.53
2023-02-17T09:49:56.321Z,99927.44
2023-02-17T09:52:23.875Z,99911.78
2023-02-17T09:54:53.882Z,99901.66
2023-02-17T09:57:22.357Z,99894.25
2023-02-17T09:59:52.248Z,99910.81
2023-02-17T10:02:21.358Z,99908.22
2023-02-17T10:04:48.868Z,99910.50
2023-02-17T10:07:34.933Z,99894.16
2023-02-17T10:10:08.909Z,99910.63
2023-02-17T10:12:39.769Z,99895.84
2023-02-17T10:15:13.659Z,99895.88
2023-02-17T10:17:44.929Z,99887.31
2023-02-17T10:20:26.137Z,99896.69
2023-02-17T10:22:59.994Z,99896.50
2023-02-17T10:25:33.591Z,99892.00
2023-02-17T10:28:00.699Z,99895.66
2023-02-17T10:30:33.563Z,99887.59
2023-02-17T10:33:02.448Z,99869.69
2023-02-17T10:35:29.856Z,99866.16
2023-02-17T10:37:59.803Z,99868.09
2023-02-17T10:40:27.890Z,99868.97
2023-02-17T10:42:56.138Z,99875.84
2023-02-17T10:45:24.337Z,99867.28
2023-02-17T10:47:52.967Z,99867.91
2023-02-17T10:50:21.638Z,99861.00
2023-02-17T10:52:49.022Z,99853.09
2023-02-17T10:55:25.121Z,99843.72
2023-02-17T10:57:54.296Z,99837.69
2023-02-17T11:00:22.122Z,99830.69
2023-02-17T11:02:50.391Z,99828.94
2023-02-17T11:05:21.696Z,99826.31
2023-02-17T11:07:48.844Z,99828.94
2023-02-17T11:10:23.101Z,99833.28
2023-02-17T11:12:50.564Z,99830.69
2023-02-17T11:15:18.620Z,99830.69
2023-02-17T11:17:46.007Z,99816.72
2023-02-17T11:20:13.772Z,99817.59
2023-02-17T11:22:42.463Z,99814.12
2023-02-17T11:25:24.925Z,99811.50
2023-02-17T11:27:56.508Z,99815.88
2023-02-17T11:30:23.966Z,99807.16
2023-02-17T11:32:51.873Z,99812.38
2023-02-17T11:35:42.802Z,99801.91
2023-02-17T11:38:30.212Z,99797.53
2023-02-17T11:40:59.176Z,99787.97
2023-02-17T11:43:28.512Z,99794.03
2023-02-17T11:46:00.834Z,99795.72
2023-02-17T11:48:34.421Z,99789.72
2023-02-17T11:51:11.938Z,99779.22
2023-02-17T11:53:54.791Z,99784.34
2023-02-17T11:56:41.482Z,99786.66
2023-02-17T11:59:30.701Z,99779.94
2023-02-17T12:02:16.369Z,99778.13
2023-02-17T12:04:52.901Z,99760.84
2023-02-17T12:07:24.810Z,99771.25
2023-02-17T12:10:11.027Z,99769.47
2023-02-17T12:12:56.332Z,99758.13
2023-02-17T12:15:41.831Z,99759.13
2023-02-17T12:18:11.695Z,99751.28
2023-02-17T12:20:42.186Z,99740.00
2023-02-17T12:23:27.647Z,99743.44
2023-02-17T12:26:01.154Z,99734.47
2023-02-17T12:28:31.198Z,99734.56
2023-02-17T12:31:12.152Z,99721.66
2023-02-17T12:33:42.654Z,99728.63
2023-02-17T12:36:10.868Z,99729.50
2023-02-17T12:39:04.437Z,99725.13
2023-02-17T12:41:36.770Z,99733.03
2023-02-17T12:44:08.417Z,99731.28
2023-02-17T12:46:37.523Z,99731.28
2023-02-17T12:49:06.603Z,99734.78
2023-02-17T12:51:35.716Z,99735.56
2023-02-17T12:54:15.193Z,99745.22
2023-02-17T12:56:50.541Z,99747.84
2023-02-17T12:59:19.177Z,99747.84
2023-02-17T13:02:00.683Z,99746.09
2023-02-17T13:04:28.721Z,99733.00
2023-02-17T13:07:21.131Z,99740.00
2023-02-17T13:09:49.079Z,99734.75
2023-02-17T13:12:22.321Z,99742.63
2023-02-17T13:14:53.606Z,99733.91
2023-02-17T13:17:30.124Z,99734.75
2023-02-17T13:20:03.035Z,99730.41
2023-02-17T13:22:30.252Z,99733.00
2023-02-17T13:24:57.782Z,99742.44
2023-02-17T13:27:27.934Z,99736.50
2023-02-17T13:29:58.815Z,99738.16
2023-02-17T13:32:27.916Z,99733.87
2023-02-17T13:35:02.507Z,99723.28
2023-02-17T13:37:32.859Z,99725.06
2023-02-17T13:40:00.726Z,99719.94
2023-02-17T13:42:30.983Z,99719.03
2023-02-17T13:44:58.688Z,99709.47
2023-02-17T13:47:30.022Z,99698.81
2023-02-17T13:49:58.686Z,99694.31
2023-02-17T13:52:27.530Z,99697.59
2023-02-17T13:54:56.026Z,99697.34
2023-02-17T13:57:27.116Z,99695.47
2023-02-17T14:00:05.111Z,99690.53
2023-02-17T14:02:39.324Z,99693.22
2023-02-17T14:05:15.712Z,99693.16
2023-02-17T14:07:44.797Z,99688.53
2023-02-17T14:10:21.264Z,99687.59
2023-02-17T14:12:49.289Z,99693.72
2023-02-17T14:15:17.990Z,99690.81
2023-02-17T14:17:45.137Z,99684.88
2023-02-17T14:20:44.760Z,99687.13
2023-02-17T14:23:13.524Z,99678.09
2023-02-17T14:25:41.763Z,99688.34
2023-02-17T14:28:19.613Z,99690.50
2023-02-17T14:30:47.424Z,99687.84
2023-02-17T14:33:17.959Z,99678.59
2023-02-17T14:35:51.088Z,99671.53
2023-02-17T14:38:22.749Z,99674.22
2023-02-17T14:40:50.446Z,99676.06
2023-02-17T14:43:17.867Z,99667.03
2023-02-17T14:45:48.459Z,99664.56
2023-02-17T14:48:15.828Z,99661.72
2023-02-17T14:50:44.270Z,99657.47
2023-02-17T14:53:13.529Z,99655.69
2023-02-17T14:55:48.394Z,99652.59
2023-02-17T14:58:20.159Z,99653.53
2023-02-17T15:00:50.920Z,99645.16
2023-02-17T15:03:18.669Z,99633.53
2023-02-17T15:05:45.956Z,99639.50
2023-02-17T15:08:17.535Z,99631.09
2023-02-17T15:10:45.669Z,99618.22
2023-02-17T15:13:16.965Z,99616.53
2023-02-17T15:15:45.260Z,99621.47
2023-02-17T15:18:17.409Z,99611.84
2023-02-17T15:20:46.151Z,99607.38
2023-02-17T15:23:20.974Z,99614.34
2023-02-17T15:25:49.520Z,99613.41
2023-02-17T15:28:18.297Z,99613.03
2023-02-17T15:30:47.075Z,99609.12
2023-02-17T15:33:17.643Z,99596.84
2023-02-17T15:35:44.864Z,99602.88
2023-02-17T15:38:13.149Z,99606.50
2023-02-17T15:40:41.885Z,99598.59
2023-02-17T15:43:11.101Z,99606.63
2023-02-17T15:45:39.953Z,99614.16
2023-02-17T15:48:10.929Z,99622.75
2023-02-17T15:50:38.540Z,99621.69
2023-02-17T15:53:09.425Z,99626.94
2023-02-17T15:55:37.363Z,99629.38
2023-02-17T15:58:06.054Z,99633.94
2023-02-17T16:00:34.454Z,99631.09
2023-02-17T16:03:02.502Z,99638.47
2023-02-17T16:05:29.905Z,99632.59
2023-02-17T16:07:57.526Z,99628.13
2023-02-17T16:10:27.575Z,99623.06
2023-02-17T16:12:55.681Z,99627.03
2023-02-17T16:15:24.206Z,99609.09
2023-02-17T16:17:52.063Z,99598.19
2023-02-17T16:20:23.307Z,99600.94
2023-02-17T16:22:50.882Z,99599.25
2023-02-17T16:25:20.803Z,99602.59
2023-02-17T16:27:50.211Z,99610.22
2023-02-17T16:30:18.881Z,99620.53
2023-02-17T16:32:47.378Z,99613.97
2023-02-17T16:35:18.281Z,99621.00
2023-02-17T16:37:47.744Z,99619.84
2023-02-17T16:40:16.568Z,99608.56
2023-02-17T16:42:43.827Z,99605.84
2023-02-17T16:45:18.776Z,99607.78
2023-02-17T16:47:48.518Z,99600.13
2023-02-17T16:50:23.602Z,99594.00
2023-02-17T16:52:53.016Z,99587.66
2023-02-17T16:55:21.756Z,99593.72
2023-02-17T16:57:49.849Z,99591.13
2023-02-17T17:00:20.706Z,99586.09
2023-02-17T17:02:51.343Z,99584.22
2023-02-17T17:05:20.531Z,99584.22
2023-02-17T17:07:48.174Z,99573.72
2023-02-17T17:10:17.550Z,99579.78
2023-02-17T17:12:47.653Z,99580.66
2023-02-17T17:15:17.025Z,99586.12
2023-02-17T17:17:52.121Z,99571.38
2023-02-17T17:20:24.208Z,99575.66
2023-02-17T17:22:51.900Z,99563.28
2023-02-17T17:25:20.578Z,99564.44
2023-02-17T17:27:48.549Z,99565.38
2023-02-17T17:30:18.229Z,99561.78
2023-02-17T17:32:46.349Z,99559.28
2023-02-17T17:35:14.266Z,99560.16
2023-02-17T17:37:42.250Z,99563.75
2023-02-17T17:40:15.155Z,99564.53
2023-02-17T17:42:44.359Z,99566.28
2023-02-17T17:45:12.999Z,99563.00
2023-02-17T17:47:42.802Z,99562.19
2023-02-17T17:50:18.375Z,99565.72
2023-02-17T17:52:48.032Z,99568.34
2023-02-17T17:55:16.946Z,99564.84
2023-02-17T17:57:45.369Z,99556.16
2023-02-17T18:00:17.570Z,99551.78
2023-02-17T18:02:45.766Z,99554.41
2023-02-17T18:05:14.427Z,99553.53
2023-02-17T18:07:42.843Z,99554.41
2023-02-17T18:10:11.334Z,99545.72
2023-02-17T18:12:39.020Z,99536.13
2023-02-17T18:15:07.323Z,99527.38
2023-02-17T18:17:37.242Z,99535.25
2023-02-17T18:20:06.259Z,99525.69
2023-02-17T18:22:34.758Z,99541.34
2023-02-17T18:25:04.084Z,99538.75
2023-02-17T18:27:37.022Z,99538.69
2023-02-17T18:30:06.535Z,99530.88
2023-02-17T18:32:34.410Z,99536.09
2023-02-17T18:35:03.111Z,99538.75
2023-02-17T18:37:31.949Z,99534.41
2023-02-17T18:40:00.372Z,99533.47
2023-02-17T18:42:28.306Z,99531.75
2023-02-17T18:44:57.311Z,99522.19
2023-02-17T18:47:25.478Z,99523.91
2023-02-17T18:49:54.177Z,99516.06
2023-02-17T18:52:22.399Z,99509.09
2023-02-17T18:54:51.165Z,99507.34
2023-02-17T18:57:19.915Z,99516.97
2023-02-17T18:59:49.435Z,99510.00
2023-02-17T19:02:17.253Z,99505.63
2023-02-17T19:04:45.494Z,99497.78
2023-02-17T19:07:14.809Z,99505.66
2023-02-17T19:09:43.982Z,99502.19
2023-02-17T19:12:16.690Z,99496.94
2023-02-17T19:14:45.190Z,99502.16
2023-02-17T19:17:18.717Z,99503.03
2023-02-17T19:19:47.376Z,99488.19
2023-02-17T19:22:15.554Z,99497.78
2023-02-17T19:24:43.744Z,99500.41
2023-02-17T19:27:11.777Z,99490.78
2023-02-17T19:29:40.884Z,99496.00
2023-02-17T19:32:09.168Z,99503.84
2023-02-17T19:34:38.699Z,99497.78
2023-02-17T19:37:08.557Z,99489.03
2023-02-17T19:39:40.466Z,99485.44
2023-02-17T19:42:09.178Z,99496.00
2023-02-17T19:44:37.522Z,99497.75
2023-02-17T19:47:05.927Z,99499.50
2023-02-17T19:49:35.269Z,99496.09
2023-02-17T19:52:03.741Z,99480.41
2023-02-17T19:54:40.314Z,99471.72
2023-02-17T19:57:10.020Z,99463.88
2023-02-17T19:59:39.106Z,99470.81
2023-02-17T20:02:15.386Z,99458.53
2023-02-17T20:04:44.632Z,99450.66
2023-02-17T20:07:12.710Z,99453.84
2023-02-17T20:09:42.177Z,99454.00
2023-02-17T20:12:13.162Z,99449.47
2023-02-17T20:14:42.608Z,99445.16
2023-02-17T20:17:12.299Z,99438.97
2023-02-17T20:19:41.879Z,99433.81
2023-02-17T20:22:10.561Z,99419.03
2023-02-17T20:24:41.311Z,99420.19
2023-02-17T20:27:09.693Z,99416.44
2023-02-17T20:29:38.433Z,99417.31
2023-02-17T20:32:08.942Z,99407.16
2023-02-17T20:34:41.640Z,99399.31
2023-02-17T20:37:09.910Z,99405.94
2023-02-17T20:39:42.489Z,99396.34
2023-02-17T20:42:10.747Z,99386.09
2023-02-17T20:44:39.269Z,99392.25
2023-02-17T20:47:08.013Z,99387.88
2023-02-17T20:49:37.237Z,99392.31
2023-02-17T20:52:06.325Z,99394.75
2023-02-17T20:54:36.396Z,99394.88
2023-02-17T20:57:06.260Z,99392.63
2023-02-17T20:59:34.839Z,99391.31
2023-02-17T21:02:02.921Z,99388.75
2023-02-17T21:04:30.938Z,99386.03
2023-02-17T21:07:01.281Z,99393.81
2023-02-17T21:09:29.657Z,99387.12
2023-02-17T21:11:57.725Z,99389.59
2023-02-17T21:14:26.144Z,99388.91
2023-02-17T21:16:55.582Z,99393.41
2023-02-17T21:19:24.072Z,99390.81
2023-02-17T21:21:52.680Z,99400.34
2023-02-17T21:24:22.212Z,99394.25
2023-02-17T21:26:49.509Z,99388.94
2023-02-17T21:29:19.584Z,99387.22
2023-02-17T21:31:48.668Z,99387.22
2023-02-17T21:34:17.104Z,99382.88
2023-02-17T21:36:45.152Z,99390.78
2023-02-17T21:39:14.120Z,99394.25
2023-02-17T21:41:44.921Z,99403.00
2023-02-17T21:44:30.969Z,99407.31
2023-02-17T21:46:58.747Z,99409.88
2023-02-17T21:49:26.138Z,99423.88
2023-02-17T21:51:53.305Z,99423.72
2023-02-17T21:54:20.802Z,99428.87
2023-02-17T21:56:48.254Z,99427.25
2023-02-17T21:59:15.816Z,99432.56
2023-02-17T22:01:43.431Z,99427.22
2023-02-17T22:04:11.447Z,99429.81
2023-02-17T22:06:40.259Z,99425.38
2023-02-17T22:09:08.664Z,99426.12
2023-02-17T22:11:38.730Z,99432.47
2023-02-17T22:14:06.913Z,99422.84
2023-02-17T22:16:35.780Z,99442.88
2023-02-17T22:19:04.003Z,99466.19
2023-02-17T22:21:31.375Z,99458.94
2023-02-17T22:23:58.899Z,99446.81
2023-02-17T22:26:26.682Z,99438.97
2023-02-17T22:28:53.934Z,99431.16
2023-02-17T22:31:22.663Z,99432.06
2023-02-17T22:33:50.134Z,99433.91
2023-02-17T22:36:22.604Z,99431.66
2023-02-17T22:38:50.376Z,99427.25
2023-02-17T22:41:18.735Z,99427.25
2023-02-17T22:43:46.401Z,99426.34
2023-02-17T22:46:16.341Z,99437.72
2023-02-17T22:48:44.363Z,99439.50
2023-02-17T22:51:12.881Z,99434.03
2023-02-17T22:53:40.416Z,99428.97
2023-02-17T22:56:08.004Z,99443.00
2023-02-17T22:58:35.818Z,99445.63
2023-02-17T23:01:03.226Z,99440.28
2023-02-17T23:03:30.364Z,99438.66
2023-02-17T23:06:01.052Z,99446.47
2023-02-17T23:08:30.527Z,99440.25
2023-02-17T23:10:57.659Z,99433.41
2023-02-17T23:13:24.940Z,99423.84
2023-02-17T23:15:52.362Z,99417.78
2023-02-17T23:18:19.952Z,99411.63
2023-02-17T23:20:48.074Z,99411.69
2023-02-17T23:23:15.807Z,99400.38
2023-02-17T23:25:43.853Z,99416.91
2023-02-17T23:28:11.046Z,99416.91
2023-02-17T23:30:38.792Z,99416.00
2023-02-17T23:33:06.011Z,99397.78
2023-02-17T23:35:33.187Z,99385.59
2023-02-17T23:38:00.815Z,99385.56
2023-02-17T23:40:27.968Z,99387.28
2023-02-17T23:42:56.314Z,99383.81
2023-02-17T23:45:24.039Z,99368.22
2023-02-17T23:47:51.190Z,99372.47
2023-02-17T23:50:18.456Z,99369.03
2023-02-17T23:52:46.047Z,99367.22
2023-02-17T23:55:13.172Z,99379.44
2023-02-17T23:57:40.348Z,99369.84
